Terminal Aerodrome Forecast
Issued by NWS

Home | Current Version | Previous Version | Text Only | Print | Product List | Glossary On
Versions: 1 2 3 4 5 6 7 8 9 10 11 12 13 14 15 16 17 18 19 20 21 22 23 24 25 26 27 28 29 30 31 32 33 34 35 36 37 38 39 40 41 42 43 44 45 46 47 48
000
FTUS44 KHGX 282051 AAA
TAFCXO
TAF AMD
KCXO 282051Z 2821/2918 16015KT P6SM SCT040 BKN250
     FM282200 15005KT P6SM VCTS SCT035CB
      TEMPO 2823/2903 VRB25KT 4SM TSRA BKN025CB
     FM290300 15005KT P6SM VCTS BKN025CB
     FM290600 VRB06KT P6SM VCSH BKN035
     FM290900 VRB03KT P6SM VCTS BKN035CB=

USA.gov is the U.S. government's official web portal to all federal, state and local government web resources and services.